Time;durP1;ratioP1;P1;durP2;ratioP2;P2;SDS_P1;SDS_P2;PMS_P1;PMS_P2;Temp;Humidity;BMP_temperature;BMP_pressure;BME280_temperature;BME280_humidity;BME280_pressure;Samples;Min_cycle;Max_cycle;Signal;HPM_P1;HPM_P2
2023/03/13 00:00:50;;;;;;;31.00;13.07;;;20.80;56.70;;;;;;5031344;28;20057;-76
2023/03/13 00:03:16;;;;;;;15.75;9.90;;;20.70;56.40;;;;;;5031125;28;20044;-76
2023/03/13 00:05:42;;;;;;;14.88;9.35;;;20.80;56.40;;;;;;5030702;28;20030;-76
2023/03/13 00:08:08;;;;;;;16.00;9.82;;;20.70;56.20;;;;;;5031092;28;20056;-76
2023/03/13 00:10:38;;;;;;;15.38;9.77;;;20.60;56.20;;;;;;5031129;28;20053;-76
2023/03/13 00:13:05;;;;;;;22.38;11.70;;;20.60;56.20;;;;;;5030977;28;20104;-76
2023/03/13 00:15:32;;;;;;;23.20;13.10;;;20.80;56.30;;;;;;5030921;28;20049;-76
2023/03/13 00:17:58;;;;;;;25.92;12.60;;;20.60;56.30;;;;;;5030959;28;20500;-76
2023/03/13 00:20:24;;;;;;;22.70;13.02;;;20.60;56.20;;;;;;5030726;28;20509;-76
2023/03/13 00:22:50;;;;;;;26.88;14.25;;;20.60;56.20;;;;;;5029900;28;20470;-76
2023/03/13 00:25:16;;;;;;;28.92;14.23;;;20.80;56.10;;;;;;5030955;28;20040;-76
2023/03/13 00:27:42;;;;;;;29.88;16.70;;;20.70;56.00;;;;;;5030798;28;20735;-76
2023/03/13 00:30:08;;;;;;;30.13;14.63;;;20.70;55.90;;;;;;5029559;28;20048;-76
2023/03/13 00:32:45;;;;;;;23.40;12.23;;;20.80;55.90;;;;;;5029591;28;20029;-76
2023/03/13 00:35:15;;;;;;;22.42;11.38;;;20.60;55.60;;;;;;5029707;28;20132;-76
2023/03/13 00:37:41;;;;;;;25.83;13.50;;;20.70;55.80;;;;;;5030916;28;20065;-76
2023/03/13 00:40:09;;;;;;;21.58;12.63;;;20.70;55.70;;;;;;5029350;28;20041;-76
2023/03/13 00:42:35;;;;;;;22.85;14.18;;;20.70;55.60;;;;;;5045078;28;20058;-76
2023/03/13 00:45:01;;;;;;;21.92;12.68;;;20.60;55.40;;;;;;5029180;28;20059;-75
2023/03/13 00:47:27;;;;;;;25.80;14.02;;;20.60;55.30;;;;;;5029488;28;20037;-76
2023/03/13 00:49:53;;;;;;;28.38;13.70;;;20.70;55.40;;;;;;5030437;28;20040;-76
2023/03/13 00:52:19;;;;;;;25.42;13.48;;;20.60;55.30;;;;;;5032116;28;20030;-76
2023/03/13 00:54:46;;;;;;;23.77;14.10;;;20.60;55.30;;;;;;5034465;28;20045;-76
2023/03/13 00:57:12;;;;;;;27.40;13.68;;;20.70;55.40;;;;;;5033147;28;20112;-76
2023/03/13 00:59:38;;;;;;;27.35;13.57;;;20.60;55.30;;;;;;5034255;28;20112;-76
2023/03/13 01:02:04;;;;;;;26.73;13.63;;;20.50;55.40;;;;;;5032933;28;20051;-75
2023/03/13 01:04:31;;;;;;;24.02;12.68;;;20.50;55.40;;;;;;5033207;28;20034;-76
2023/03/13 01:06:57;;;;;;;24.00;13.27;;;20.60;55.30;;;;;;5034399;28;20151;-76
2023/03/13 01:09:23;;;;;;;20.92;13.25;;;20.50;55.40;;;;;;5033824;28;20033;-76
2023/03/13 01:11:49;;;;;;;22.98;12.18;;;20.50;55.40;;;;;;5034416;28;20570;-76
2023/03/13 01:14:17;;;;;;;15.07;10.02;;;20.40;55.40;;;;;;5032734;28;20132;-76
2023/03/13 01:16:43;;;;;;;25.27;12.10;;;20.40;55.40;;;;;;5034167;28;20060;-76
2023/03/13 01:19:12;;;;;;;22.20;12.13;;;20.40;55.40;;;;;;5034181;28;20033;-76
2023/03/13 01:21:40;;;;;;;17.45;11.07;;;20.40;55.40;;;;;;5034220;28;20397;-76
2023/03/13 01:24:07;;;;;;;20.23;9.95;;;20.30;55.40;;;;;;5034024;28;20041;-76
2023/03/13 01:26:33;;;;;;;15.40;10.35;;;20.30;55.30;;;;;;5033853;28;20484;-76
2023/03/13 01:28:59;;;;;;;19.55;11.27;;;20.30;55.20;;;;;;5033696;28;20037;-76
2023/03/13 01:31:30;;;;;;;24.08;11.35;;;20.30;55.00;;;;;;5033872;28;20032;-76
2023/03/13 01:34:00;;;;;;;18.13;10.95;;;20.50;55.00;;;;;;5032609;28;20072;-76
2023/03/13 01:36:27;;;;;;;18.95;11.73;;;20.50;54.90;;;;;;5016111;28;20500;-76
2023/03/13 01:38:55;;;;;;;22.27;12.07;;;20.40;54.80;;;;;;5033864;28;20074;-76
2023/03/13 01:41:23;;;;;;;27.20;12.80;;;20.30;54.80;;;;;;5033355;28;20516;-76
2023/03/13 01:43:50;;;;;;;26.40;14.63;;;20.30;54.90;;;;;;5032198;28;20041;-76
2023/03/13 01:46:18;;;;;;;23.77;13.23;;;20.30;54.90;;;;;;5033747;28;20025;-77
2023/03/13 01:49:26;;;;;;;19.92;12.07;;;20.30;55.00;;;;;;5032248;28;20029;-76
2023/03/13 01:52:13;;;;;;;23.98;13.27;;;20.30;54.90;;;;;;4975463;28;20053;-76
2023/03/13 01:55:00;;;;;;;19.42;10.98;;;20.30;54.60;;;;;;4975461;28;20357;-76
2023/03/13 01:57:33;;;;;;;15.65;9.85;;;20.30;54.60;;;;;;4975171;28;20038;-76
2023/03/13 02:00:27;;;;;;;21.58;12.57;;;20.40;54.50;;;;;;4975013;28;20050;-76
2023/03/13 02:02:58;;;;;;;21.50;10.98;;;20.50;54.50;;;;;;4988620;28;20042;-76
2023/03/13 02:05:27;;;;;;;17.27;10.68;;;20.40;54.40;;;;;;4975103;28;20042;-76
2023/03/13 02:08:12;;;;;;;20.55;10.70;;;20.30;54.40;;;;;;4991281;28;20097;-76
2023/03/13 02:10:43;;;;;;;15.25;9.68;;;20.40;54.40;;;;;;4974710;28;20206;-77
2023/03/13 02:13:14;;;;;;;18.67;9.77;;;20.40;54.40;;;;;;4991198;28;20046;-76
2023/03/13 02:15:40;;;;;;;16.15;9.48;;;20.40;54.30;;;;;;4977118;28;20129;-76
2023/03/13 02:18:08;;;;;;;18.38;9.88;;;20.30;54.30;;;;;;5007417;28;20077;-76
2023/03/13 02:20:34;;;;;;;17.63;9.85;;;20.30;54.40;;;;;;5007276;28;20057;-76
2023/03/13 02:23:12;;;;;;;14.80;9.15;;;20.30;54.50;;;;;;4991119;28;20050;-76
2023/03/13 02:25:44;;;;;;;20.38;10.02;;;20.20;54.40;;;;;;4991264;28;20037;-77
2023/03/13 02:28:12;;;;;;;;;;;20.20;54.50;;;;;;5000246;28;20050;-76
2023/03/13 02:30:42;;;;;;;23.35;11.02;;;20.20;54.60;;;;;;5011252;28;19916;-77
2023/03/13 02:33:10;;;;;;;19.00;10.82;;;20.10;54.50;;;;;;4995376;28;20126;-75
2023/03/13 02:35:36;;;;;;;20.63;11.20;;;20.10;54.70;;;;;;5011444;28;20520;-76
2023/03/13 02:38:09;;;;;;;17.52;9.98;;;20.10;54.70;;;;;;4994913;28;20045;-76
2023/03/13 02:40:39;;;;;;;16.75;9.48;;;20.10;54.70;;;;;;5011374;28;20034;-76
2023/03/13 02:43:14;;;;;;;21.63;10.63;;;20.00;54.60;;;;;;5011612;28;20061;-76
2023/03/13 02:45:40;;;;;;;19.10;10.02;;;20.00;54.70;;;;;;5025637;28;20417;-76
2023/03/13 02:48:07;;;;;;;15.82;10.43;;;20.00;54.60;;;;;;5031188;28;20124;-77
2023/03/13 02:50:36;;;;;;;17.45;10.55;;;20.00;54.50;;;;;;5031988;28;20079;-76
2023/03/13 02:53:06;;;;;;;21.38;10.60;;;20.00;54.40;;;;;;5030948;28;20436;-76
2023/03/13 02:55:40;;;;;;;18.08;10.60;;;20.10;54.30;;;;;;5046292;28;20049;-76
2023/03/13 02:58:07;;;;;;;14.93;9.57;;;20.00;54.10;;;;;;5030927;28;20121;-76
2023/03/13 03:00:35;;;;;;;15.80;9.23;;;20.10;54.10;;;;;;5031953;28;20482;-77
2023/03/13 03:03:01;;;;;;;18.30;10.52;;;20.00;53.90;;;;;;5029852;28;20045;-77
2023/03/13 03:05:27;;;;;;;21.00;9.93;;;20.00;53.80;;;;;;5030734;28;20069;-76
2023/03/13 03:07:53;;;;;;;17.33;10.57;;;20.00;53.80;;;;;;5032002;28;20040;-77
2023/03/13 03:10:19;;;;;;;17.08;9.73;;;20.00;53.80;;;;;;5031623;28;20095;-77
2023/03/13 03:12:45;;;;;;;18.90;9.30;;;20.00;53.60;;;;;;5031845;28;20108;-76
2023/03/13 03:15:12;;;;;;;16.58;9.68;;;20.10;53.60;;;;;;5029818;28;20045;-76
2023/03/13 03:17:43;;;;;;;14.95;9.35;;;20.10;53.50;;;;;;5030547;28;20084;-77
2023/03/13 03:20:10;;;;;;;19.00;9.98;;;20.10;53.60;;;;;;5030542;28;20037;-76
2023/03/13 03:22:39;;;;;;;16.20;10.10;;;20.10;53.50;;;;;;5030441;28;20112;-76
2023/03/13 03:25:07;;;;;;;23.38;9.80;;;20.20;53.40;;;;;;5030582;28;20104;-76
2023/03/13 03:27:35;;;;;;;15.88;10.38;;;20.20;53.40;;;;;;5031646;28;20036;-76
2023/03/13 03:30:04;;;;;;;14.77;9.43;;;20.20;53.30;;;;;;5030391;28;20037;-76
2023/03/13 03:32:32;;;;;;;20.73;10.18;;;20.20;53.40;;;;;;5012452;28;20050;-76
2023/03/13 03:34:58;;;;;;;12.80;9.55;;;20.10;53.40;;;;;;5012616;28;20060;-76
2023/03/13 03:37:25;;;;;;;18.02;10.40;;;20.10;53.50;;;;;;5028791;28;20464;-76
2023/03/13 03:39:51;;;;;;;20.83;10.32;;;19.90;53.40;;;;;;5029178;28;20095;-76
2023/03/13 03:42:17;;;;;;;15.98;9.77;;;20.00;53.60;;;;;;5028800;28;20092;-77
2023/03/13 03:44:43;;;;;;;19.50;10.63;;;20.10;53.70;;;;;;5028818;28;20046;-77
2023/03/13 03:47:10;;;;;;;14.40;10.05;;;19.90;53.70;;;;;;5012282;28;20045;-76
2023/03/13 03:49:41;;;;;;;13.68;9.52;;;19.90;53.90;;;;;;5012950;28;20051;-76
2023/03/13 03:52:09;;;;;;;19.05;10.23;;;19.80;53.90;;;;;;5012315;28;20029;-77
2023/03/13 03:54:38;;;;;;;19.77;10.43;;;19.90;53.90;;;;;;5012248;28;20578;-77
2023/03/13 03:57:05;;;;;;;17.80;10.40;;;20.00;53.90;;;;;;5028803;28;20064;-76
2023/03/13 03:59:31;;;;;;;21.27;10.98;;;19.80;53.90;;;;;;5008827;28;20049;-77
2023/03/13 04:02:02;;;;;;;16.92;10.82;;;19.80;53.90;;;;;;5008821;28;20038;-76
2023/03/13 04:04:29;;;;;;;20.40;10.23;;;19.90;53.90;;;;;;4969664;28;20055;-76
2023/03/13 04:07:01;;;;;;;19.20;9.77;;;19.80;53.80;;;;;;4969797;28;20043;-76
2023/03/13 04:09:28;;;;;;;19.65;10.15;;;19.80;53.90;;;;;;4992032;28;20070;-76
2023/03/13 04:11:54;;;;;;;16.90;10.75;;;19.70;54.00;;;;;;4972957;28;20065;-76
2023/03/13 04:14:21;;;;;;;18.40;10.60;;;19.70;53.90;;;;;;4956994;28;20501;-76
2023/03/13 04:16:47;;;;;;;18.95;9.88;;;19.70;53.90;;;;;;4973070;28;20046;-77
2023/03/13 04:19:14;;;;;;;22.23;9.82;;;19.70;53.90;;;;;;4972719;28;20053;-75
2023/03/13 04:21:42;;;;;;;17.48;10.05;;;19.70;53.90;;;;;;4969802;28;20039;-76
2023/03/13 04:24:12;;;;;;;18.02;10.73;;;19.70;53.70;;;;;;4953648;28;20047;-75
2023/03/13 04:26:40;;;;;;;14.73;10.15;;;19.80;53.60;;;;;;4953922;28;20047;-76
2023/03/13 04:29:06;;;;;;;20.00;10.63;;;19.70;53.40;;;;;;4954153;28;20043;-77
2023/03/13 04:31:58;;;;;;;20.45;11.60;;;19.70;53.20;;;;;;4973374;28;20488;-77
2023/03/13 04:34:30;;;;;;;57.15;22.02;;;19.80;53.10;;;;;;4973424;28;20059;-76
2023/03/13 04:37:25;;;;;;;19.63;11.57;;;19.80;53.20;;;;;;4982888;28;20038;-77
2023/03/13 04:40:07;;;;;;;24.92;13.27;;;19.90;53.00;;;;;;4976646;28;20491;-77
2023/03/13 04:42:56;;;;;;;20.48;11.35;;;19.90;52.80;;;;;;4954031;29;20379;-77
2023/03/13 04:45:38;;;;;;;17.80;11.48;;;20.10;52.80;;;;;;4934795;29;20051;-77
2023/03/13 04:48:23;;;;;;;20.40;11.15;;;20.10;52.60;;;;;;4934681;29;20146;-76
2023/03/13 04:50:59;;;;;;;24.85;11.32;;;20.20;52.60;;;;;;4934984;29;20110;-76
2023/03/13 04:53:30;;;;;;;43.17;15.88;;;20.20;52.70;;;;;;4934454;29;20125;-77
2023/03/13 04:56:27;;;;;;;25.50;12.02;;;20.40;52.50;;;;;;4896754;29;20056;-77
2023/03/13 04:59:06;;;;;;;25.58;12.43;;;20.70;52.10;;;;;;4896965;29;20055;-77
2023/03/13 05:01:55;;;;;;;25.60;12.70;;;20.90;51.40;;;;;;4896515;29;20056;-76
2023/03/13 05:04:36;;;;;;;18.30;11.38;;;21.20;51.00;;;;;;4896572;29;20045;-76
2023/03/13 05:07:21;;;;;;;17.90;9.95;;;21.10;50.80;;;;;;4912266;29;20048;-76
2023/03/13 05:10:06;;;;;;;28.83;13.65;;;21.20;51.20;;;;;;4822634;29;20052;-73
2023/03/13 05:12:44;;;;;;;45.88;19.52;;;21.20;53.80;;;;;;4839665;29;20111;-75
2023/03/13 05:15:21;;;;;;;53.70;22.52;;;21.80;56.80;;;;;;4877900;29;20123;-74
2023/03/13 05:18:07;;;;;;;35.92;16.98;;;22.40;59.10;;;;;;4896452;29;20057;-74
2023/03/13 05:20:57;;;;;;;20.30;12.20;;;22.40;61.60;;;;;;4947809;29;20047;-73
2023/03/13 05:23:38;;;;;;;25.75;10.88;;;22.50;58.10;;;;;;4953329;29;20074;-73
2023/03/13 05:26:22;;;;;;;17.10;9.55;;;22.30;55.50;;;;;;4953362;29;20063;-73
2023/03/13 05:29:07;;;;;;;27.77;12.55;;;22.30;52.10;;;;;;4953453;28;20090;-73
2023/03/13 05:31:53;;;;;;;27.08;13.60;;;22.30;49.50;;;;;;4975796;28;20105;-71
2023/03/13 05:34:37;;;;;;;27.20;14.50;;;22.00;49.00;;;;;;5011449;28;20049;-72
2023/03/13 05:37:33;;;;;;;27.90;14.43;;;21.80;49.30;;;;;;4991050;28;20141;-71
2023/03/13 05:40:25;;;;;;;25.90;14.18;;;21.80;50.10;;;;;;4964544;28;20399;-72
2023/03/13 05:43:14;;;;;;;24.60;13.52;;;21.50;50.60;;;;;;4989690;28;20093;-72
2023/03/13 05:46:00;;;;;;;25.95;13.30;;;21.30;51.00;;;;;;4991844;28;20038;-73
2023/03/13 05:48:58;;;;;;;30.75;15.48;;;21.40;51.60;;;;;;4972317;28;20046;-74
2023/03/13 05:51:50;;;;;;;24.70;13.13;;;21.30;51.70;;;;;;4952794;29;20500;-73
2023/03/13 05:54:36;;;;;;;27.85;14.13;;;21.30;52.20;;;;;;4952869;29;20054;-74
2023/03/13 05:57:20;;;;;;;28.08;15.73;;;21.30;52.30;;;;;;4952687;29;20521;-72
2023/03/13 06:00:07;;;;;;;25.10;14.18;;;21.40;52.50;;;;;;4895535;29;20060;-72
2023/03/13 06:02:55;;;;;;;30.13;13.80;;;21.20;50.00;;;;;;4879780;29;20060;-73
2023/03/13 06:05:29;;;;;;;26.95;12.80;;;21.40;48.10;;;;;;4880092;29;20076;-73
2023/03/13 06:07:56;;;;;;;19.75;11.52;;;21.60;47.80;;;;;;4892347;29;20056;-72
2023/03/13 06:10:22;;;;;;;23.23;10.98;;;21.80;45.40;;;;;;4824175;29;20054;-72
2023/03/13 06:12:52;;;;;;;18.10;10.05;;;22.10;50.80;;;;;;4824541;29;20084;-74
2023/03/13 06:15:19;;;;;;;23.40;10.95;;;22.10;45.10;;;;;;4858115;29;20569;-74
2023/03/13 06:17:58;;;;;;;15.38;8.35;;;22.10;44.80;;;;;;4858216;29;20046;-74
2023/03/13 06:20:24;;;;;;;17.60;7.88;;;22.00;44.90;;;;;;4857246;29;20037;-74
2023/03/13 06:22:50;;;;;;;17.55;8.95;;;22.00;45.00;;;;;;4868334;29;20076;-74
2023/03/13 06:25:16;;;;;;;10.05;7.32;;;22.00;45.50;;;;;;4904478;29;20132;-75
2023/03/13 06:27:42;;;;;;;13.93;8.13;;;21.90;44.20;;;;;;4934167;29;20052;-76
2023/03/13 06:30:09;;;;;;;18.60;9.82;;;21.90;43.80;;;;;;4970378;28;20051;-76
2023/03/13 06:32:35;;;;;;;22.98;11.70;;;21.90;43.90;;;;;;4971362;28;20060;-75
2023/03/13 06:35:01;;;;;;;16.08;9.02;;;21.90;41.80;;;;;;4987330;28;20046;-75
2023/03/13 06:37:27;;;;;;;19.00;9.52;;;22.00;40.10;;;;;;5010215;28;20052;-73
2023/03/13 06:39:53;;;;;;;23.55;10.38;;;22.10;39.10;;;;;;5032473;28;20052;-75
2023/03/13 06:42:19;;;;;;;15.23;10.32;;;22.30;41.80;;;;;;5046355;28;20485;-75
2023/03/13 06:44:45;;;;;;;22.42;10.80;;;22.20;40.80;;;;;;5032466;28;20049;-74
2023/03/13 06:47:11;;;;;;;23.67;10.35;;;22.30;49.50;;;;;;5032998;28;20081;-74
2023/03/13 06:49:37;;;;;;;22.98;9.90;;;22.40;60.00;;;;;;5031496;28;20034;-74
2023/03/13 06:52:03;;;;;;;16.67;8.40;;;22.40;59.60;;;;;;5032196;28;20042;-78
2023/03/13 06:54:29;;;;;;;21.23;7.90;;;22.40;59.70;;;;;;5040888;28;20049;-76
2023/03/13 06:56:55;;;;;;;18.20;7.88;;;22.50;57.60;;;;;;5051165;28;20068;-76
2023/03/13 06:59:21;;;;;;;16.25;9.57;;;22.70;56.00;;;;;;5052247;28;20025;-73
2023/03/13 07:01:47;;;;;;;23.35;10.45;;;22.60;53.40;;;;;;5051965;28;20040;-73
2023/03/13 07:04:13;;;;;;;21.95;9.52;;;22.60;51.40;;;;;;5032039;28;20143;-72
2023/03/13 07:06:39;;;;;;;15.70;9.57;;;22.70;51.90;;;;;;5031840;28;20129;-71
2023/03/13 07:09:05;;;;;;;14.38;9.35;;;22.80;50.90;;;;;;5032357;28;20124;-73
2023/03/13 07:11:39;;;;;;;20.50;8.60;;;22.70;51.40;;;;;;5129075;27;20360;-75
2023/03/13 07:14:05;;;;;;;19.77;8.82;;;22.80;53.40;;;;;;5056348;28;20052;-75
2023/03/13 07:16:31;;;;;;;16.67;7.68;;;22.90;53.00;;;;;;5108936;28;20687;-76
2023/03/13 07:18:57;;;;;;;10.52;6.45;;;22.80;51.80;;;;;;5108832;28;20054;-76
2023/03/13 07:21:23;;;;;;;12.55;6.28;;;22.80;52.10;;;;;;5108627;28;20577;-76
2023/03/13 07:23:49;;;;;;;11.95;7.00;;;22.90;52.20;;;;;;5108800;28;20035;-74
2023/03/13 07:26:15;;;;;;;9.35;5.53;;;22.90;52.10;;;;;;5108846;28;20146;-75
2023/03/13 07:28:42;;;;;;;9.80;5.78;;;22.80;51.30;;;;;;5108727;28;20028;-74
2023/03/13 07:31:16;;;;;;;15.05;7.47;;;23.00;51.90;;;;;;5108881;28;20086;-75
2023/03/13 07:33:44;;;;;;;15.27;6.68;;;23.00;51.60;;;;;;5108726;28;20047;-75
2023/03/13 07:36:11;;;;;;;8.98;5.55;;;22.90;51.40;;;;;;5108824;28;20099;-75
2023/03/13 07:38:37;;;;;;;11.52;5.20;;;22.90;51.60;;;;;;5108688;28;20036;-75
2023/03/13 07:41:04;;;;;;;10.60;7.03;;;22.90;51.50;;;;;;5072210;28;20380;-75
2023/03/13 07:43:30;;;;;;;14.18;7.80;;;22.90;51.20;;;;;;5108345;28;20067;-75
2023/03/13 07:46:01;;;;;;;10.25;6.60;;;22.90;50.80;;;;;;5108366;28;20043;-75
2023/03/13 07:48:33;;;;;;;10.57;6.05;;;22.80;51.10;;;;;;5108323;28;20059;-73
2023/03/13 07:50:59;;;;;;;6.63;5.03;;;22.80;52.40;;;;;;5108495;28;20514;-73
2023/03/13 07:53:26;;;;;;;6.97;5.15;;;22.70;52.60;;;;;;5108305;28;20103;-72
2023/03/13 07:56:03;;;;;;;6.93;4.20;;;22.60;53.00;;;;;;5107954;28;20497;-73
2023/03/13 07:58:32;;;;;;;5.63;3.15;;;22.50;54.00;;;;;;5089781;28;20067;-73
2023/03/13 08:00:58;;;;;;;4.80;3.33;;;22.40;53.40;;;;;;5108097;28;20432;-72
2023/03/13 08:03:25;;;;;;;8.52;3.47;;;22.50;55.10;;;;;;5107935;28;20039;-74
2023/03/13 08:05:59;;;;;;;3.40;2.92;;;22.50;54.50;;;;;;5107880;28;20118;-74
2023/03/13 08:08:25;;;;;;;6.70;3.17;;;22.30;54.40;;;;;;5107803;28;20032;-75
2023/03/13 08:10:51;;;;;;;5.13;3.20;;;22.40;54.50;;;;;;5093118;28;20058;-77
2023/03/13 08:13:17;;;;;;;7.68;3.40;;;22.30;54.60;;;;;;5087047;28;20086;-76
2023/03/13 08:15:43;;;;;;;6.00;3.53;;;22.40;54.80;;;;;;5087302;28;20479;-74
2023/03/13 08:18:09;;;;;;;5.68;3.35;;;22.50;57.60;;;;;;5087579;28;20035;-74
2023/03/13 08:20:35;;;;;;;6.75;3.92;;;22.40;56.30;;;;;;5076402;28;20501;-72
2023/03/13 08:23:01;;;;;;;10.60;3.90;;;22.40;56.30;;;;;;5035719;28;20492;-75
2023/03/13 08:25:27;;;;;;;8.57;4.18;;;22.20;56.10;;;;;;5053601;28;20032;-73
2023/03/13 08:27:54;;;;;;;6.97;3.30;;;22.00;53.40;;;;;;5056062;28;20044;-71
2023/03/13 08:30:20;;;;;;;6.22;3.60;;;22.10;57.40;;;;;;5073524;28;20037;-71
2023/03/13 08:32:46;;;;;;;5.57;3.53;;;22.10;55.00;;;;;;5073563;28;20079;-71
2023/03/13 08:35:12;;;;;;;11.02;3.88;;;22.40;56.80;;;;;;5070357;28;20113;-70
2023/03/13 08:37:38;;;;;;;9.32;4.28;;;22.40;56.70;;;;;;5073582;28;20032;-70
2023/03/13 08:40:09;;;;;;;5.68;4.45;;;22.50;56.00;;;;;;5073562;28;20043;-70
2023/03/13 08:42:36;;;;;;;8.85;4.65;;;22.50;54.60;;;;;;5073279;28;20506;-69
2023/03/13 08:45:02;;;;;;;6.57;4.40;;;22.40;56.10;;;;;;5073594;28;20542;-72
2023/03/13 08:47:28;;;;;;;6.93;3.83;;;22.60;56.40;;;;;;5073257;28;20044;-70
2023/03/13 08:49:54;;;;;;;7.88;4.03;;;22.50;57.20;;;;;;5021318;28;20040;-70
2023/03/13 08:52:20;;;;;;;8.90;4.60;;;22.60;56.70;;;;;;5072991;28;20124;-70
2023/03/13 08:54:47;;;;;;;5.82;3.45;;;22.70;56.30;;;;;;5073260;28;20544;-70
2023/03/13 08:57:14;;;;;;;8.38;3.63;;;22.60;56.20;;;;;;5073064;28;20072;-71
2023/03/13 08:59:40;;;;;;;10.05;4.85;;;22.70;56.10;;;;;;5073201;28;20029;-69
2023/03/13 09:02:08;;;;;;;9.30;4.00;;;22.90;55.80;;;;;;5065804;28;20040;-71
2023/03/13 09:04:34;;;;;;;7.70;4.20;;;22.80;55.90;;;;;;5010696;28;20069;-71
2023/03/13 09:07:00;;;;;;;6.57;3.38;;;22.90;56.30;;;;;;5011109;28;20072;-72
2023/03/13 09:09:27;;;;;;;4.85;3.53;;;22.80;56.40;;;;;;4981717;28;20137;-70
2023/03/13 09:11:53;;;;;;;8.50;3.10;;;23.10;57.00;;;;;;5050460;28;20040;-74
2023/03/13 09:14:19;;;;;;;4.32;1.63;;;23.10;57.00;;;;;;5050410;28;20049;-71
2023/03/13 09:16:46;;;;;;;3.85;2.67;;;22.90;56.80;;;;;;5049676;28;20132;-70
2023/03/13 09:19:13;;;;;;;6.82;3.47;;;23.00;53.70;;;;;;5049983;28;20056;-71
2023/03/13 09:21:39;;;;;;;3.90;2.60;;;23.00;50.00;;;;;;5050193;28;20041;-71
2023/03/13 09:24:05;;;;;;;9.98;4.13;;;23.10;43.40;;;;;;5049791;28;20167;-70
2023/03/13 09:26:31;;;;;;;13.27;4.00;;;23.00;43.50;;;;;;5033205;28;20045;-71
2023/03/13 09:28:58;;;;;;;8.45;3.47;;;23.00;45.40;;;;;;5050135;28;20048;-68
2023/03/13 09:31:29;;;;;;;8.32;3.38;;;23.00;40.80;;;;;;5049696;28;20040;-71
2023/03/13 09:33:56;;;;;;;3.55;2.53;;;23.00;52.80;;;;;;5048868;28;20033;-71
2023/03/13 09:36:22;;;;;;;7.32;4.45;;;23.10;53.30;;;;;;5068373;28;20048;-70
2023/03/13 09:38:52;;;;;;;3.85;2.75;;;23.20;54.00;;;;;;5072388;28;20032;-71
2023/03/13 09:41:21;;;;;;;3.90;2.42;;;23.20;54.00;;;;;;5072293;28;20393;-71
2023/03/13 09:43:51;;;;;;;3.53;2.75;;;23.20;54.30;;;;;;5071880;28;20083;-71
2023/03/13 09:46:40;;;;;;;6.03;2.78;;;23.20;54.20;;;;;;5072088;28;20051;-71
2023/03/13 09:49:14;;;;;;;9.38;2.92;;;23.20;54.20;;;;;;5072097;28;20048;-71
2023/03/13 09:51:43;;;;;;;1.33;1.23;;;23.10;54.20;;;;;;5071933;28;20033;-73
2023/03/13 09:54:40;;;;;;;6.28;1.42;;;23.30;53.90;;;;;;5072014;28;20041;-74
2023/03/13 09:57:11;;;;;;;2.65;1.77;;;23.20;52.80;;;;;;5072139;28;20147;-74
2023/03/13 09:59:45;;;;;;;14.65;5.00;;;23.40;52.90;;;;;;5071056;28;20042;-74
2023/03/13 10:02:24;;;;;;;8.02;4.38;;;23.60;50.40;;;;;;5071830;28;20036;-74
2023/03/13 10:05:03;;;;;;;2.85;2.03;;;23.70;46.70;;;;;;5071724;28;20033;-76
2023/03/13 10:07:29;;;;;;;3.30;2.72;;;23.60;47.40;;;;;;5071952;28;20029;-75
2023/03/13 10:09:55;;;;;;;4.50;2.40;;;23.60;47.20;;;;;;5053492;28;20126;-73
2023/03/13 10:12:28;;;;;;;5.15;2.45;;;23.60;44.60;;;;;;5071789;28;20135;-73
2023/03/13 10:15:06;;;;;;;3.55;2.45;;;23.60;45.50;;;;;;5071550;28;20457;-73
2023/03/13 10:17:38;;;;;;;3.85;2.92;;;23.60;46.20;;;;;;5070425;28;20036;-74
2023/03/13 10:20:13;;;;;;;2.00;1.80;;;23.50;45.70;;;;;;5071398;28;20029;-75
2023/03/13 10:22:43;;;;;;;2.72;1.88;;;23.50;47.00;;;;;;5071456;28;20063;-77
2023/03/13 10:25:23;;;;;;;1.75;1.02;;;23.50;46.40;;;;;;5072503;28;20032;-77
2023/03/13 10:27:50;;;;;;;2.95;1.85;;;23.40;46.00;;;;;;5070027;28;20498;-75
2023/03/13 10:30:27;;;;;;;2.63;1.50;;;23.40;45.00;;;;;;5073609;28;20205;-77
2023/03/13 10:32:58;;;;;;;5.80;2.42;;;23.40;44.00;;;;;;5080585;28;20054;-76
2023/03/13 10:35:31;;;;;;;5.65;1.77;;;23.40;45.60;;;;;;5075832;28;20047;-77
2023/03/13 10:38:09;;;;;;;3.25;1.05;;;23.40;47.60;;;;;;5070312;28;20037;-76
2023/03/13 10:40:35;;;;;;;1.80;1.70;;;23.90;51.20;;;;;;5071432;28;20098;-73
2023/03/13 10:43:15;;;;;;;1.33;1.23;;;24.40;53.60;;;;;;5068190;28;20055;-73
2023/03/13 10:45:41;;;;;;;1.98;1.42;;;24.50;47.40;;;;;;5071102;28;20033;-75
2023/03/13 10:48:19;;;;;;;3.95;1.67;;;24.40;48.20;;;;;;5083109;28;20059;-75
2023/03/13 10:50:52;;;;;;;2.05;1.73;;;24.50;50.10;;;;;;5091227;28;20048;-75
2023/03/13 10:53:23;;;;;;;0.60;0.60;;;24.30;39.00;;;;;;5091178;28;20035;-77
2023/03/13 10:55:53;;;;;;;2.92;1.83;;;24.20;39.70;;;;;;5091286;28;20039;-72
2023/03/13 10:58:35;;;;;;;2.42;1.92;;;24.40;38.30;;;;;;5091472;28;20093;-71
2023/03/13 11:01:20;;;;;;;3.73;1.57;;;24.00;36.10;;;;;;5091118;28;20120;-73
2023/03/13 11:03:48;;;;;;;3.42;2.00;;;24.10;43.00;;;;;;5090631;28;20503;-72
2023/03/13 11:06:30;;;;;;;2.60;1.77;;;24.30;40.40;;;;;;5069604;28;20037;-73
2023/03/13 11:09:16;;;;;;;5.28;1.80;;;24.50;46.10;;;;;;5051642;28;20048;-74
2023/03/13 11:11:46;;;;;;;3.22;1.90;;;24.40;49.90;;;;;;5052241;28;20061;-72
2023/03/13 11:14:15;;;;;;;2.13;1.60;;;24.40;49.30;;;;;;5050607;28;20044;-72
2023/03/13 11:16:59;;;;;;;3.13;1.80;;;24.30;47.80;;;;;;5050753;28;20033;-73
2023/03/13 11:19:58;;;;;;;4.85;1.95;;;24.30;42.60;;;;;;5050645;28;20087;-73
2023/03/13 11:22:51;;;;;;;2.83;1.95;;;24.30;42.00;;;;;;5050540;28;20116;-73
2023/03/13 11:25:39;;;;;;;5.85;2.20;;;24.60;50.90;;;;;;4950321;29;20043;-73
2023/03/13 11:28:10;;;;;;;3.00;1.98;;;24.70;45.80;;;;;;4950360;29;20035;-73
2023/03/13 11:31:01;;;;;;;1.90;1.40;;;24.50;36.40;;;;;;4950027;29;20047;-73
2023/03/13 11:33:29;;;;;;;2.88;1.80;;;24.40;35.00;;;;;;4934108;29;20167;-73
2023/03/13 11:36:29;;;;;;;1.92;1.75;;;24.40;46.40;;;;;;4950038;29;20184;-74
2023/03/13 11:39:10;;;;;;;4.38;1.52;;;24.40;48.50;;;;;;4911711;29;20123;-73
2023/03/13 11:41:42;;;;;;;3.35;1.67;;;24.40;50.10;;;;;;4912028;29;20044;-75
2023/03/13 11:44:10;;;;;;;3.67;2.08;;;24.30;50.30;;;;;;4911734;29;20059;-73
2023/03/13 11:46:56;;;;;;;3.55;1.80;;;24.30;53.60;;;;;;4912121;29;20036;-74
2023/03/13 11:49:30;;;;;;;4.45;1.75;;;24.40;41.60;;;;;;4911782;29;20047;-72
2023/03/13 11:52:28;;;;;;;2.55;1.65;;;24.30;53.60;;;;;;4896056;29;20048;-73
2023/03/13 11:55:16;;;;;;;2.30;1.60;;;24.30;48.70;;;;;;4855589;29;20430;-75
2023/03/13 11:58:19;;;;;;;1.60;1.50;;;24.10;53.70;;;;;;4857861;29;20125;-73
2023/03/13 12:00:57;;;;;;;2.03;1.60;;;24.20;53.60;;;;;;4859312;29;20033;-73
2023/03/13 12:03:43;;;;;;;3.50;1.80;;;24.10;54.00;;;;;;4929373;29;20046;-74
2023/03/13 12:06:29;;;;;;;3.10;1.55;;;24.10;53.30;;;;;;4934397;29;20039;-74
2023/03/13 12:09:01;;;;;;;3.95;1.30;;;24.10;52.90;;;;;;4934331;29;20042;-72
2023/03/13 12:11:35;;;;;;;2.93;1.80;;;24.10;52.70;;;;;;4949840;29;20068;-73
2023/03/13 12:14:11;;;;;;;1.60;1.50;;;24.00;52.30;;;;;;4953368;29;20404;-74
2023/03/13 12:17:07;;;;;;;1.88;1.67;;;24.10;53.10;;;;;;4954637;28;20058;-75
2023/03/13 12:19:50;;;;;;;2.33;1.83;;;24.00;52.10;;;;;;4933940;29;20050;-73
2023/03/13 12:22:26;;;;;;;4.32;2.10;;;24.00;52.10;;;;;;4934411;29;20175;-75
2023/03/13 12:25:06;;;;;;;6.85;1.98;;;24.00;51.90;;;;;;4933752;29;20578;-72
2023/03/13 12:27:41;;;;;;;6.30;2.22;;;24.00;44.60;;;;;;4934298;29;20052;-73
2023/03/13 12:30:44;;;;;;;3.42;1.58;;;23.90;49.80;;;;;;4968250;28;20050;-72
2023/03/13 12:33:36;;;;;;;2.53;1.60;;;24.00;52.50;;;;;;4999129;28;20042;-73
2023/03/13 12:36:25;;;;;;;3.60;1.63;;;23.90;55.30;;;;;;4991813;28;20057;-73
2023/03/13 12:39:19;;;;;;;2.60;1.92;;;23.90;44.50;;;;;;4999604;28;20042;-72
2023/03/13 12:41:55;;;;;;;3.78;2.10;;;23.90;42.50;;;;;;5011370;28;20393;-71
2023/03/13 12:44:22;;;;;;;6.18;2.60;;;24.00;49.10;;;;;;5010982;28;20348;-73
2023/03/13 12:47:11;;;;;;;3.70;2.50;;;24.20;44.50;;;;;;5010954;28;20065;-73
2023/03/13 12:49:59;;;;;;;2.55;2.00;;;24.10;51.90;;;;;;5010718;28;20042;-73
2023/03/13 12:52:45;;;;;;;4.28;1.88;;;24.10;52.00;;;;;;5010883;28;20046;-73
2023/03/13 12:55:17;;;;;;;2.80;2.10;;;24.20;52.10;;;;;;5011978;28;20046;-73
2023/03/13 12:58:21;;;;;;;4.38;2.30;;;24.10;52.30;;;;;;5050752;28;20076;-73
2023/03/13 13:00:49;;;;;;;2.80;2.13;;;23.90;52.00;;;;;;5050506;28;20048;-74
2023/03/13 13:03:28;;;;;;;2.22;2.00;;;24.10;52.70;;;;;;5050368;28;20036;-74
2023/03/13 13:06:15;;;;;;;5.18;2.20;;;24.00;53.20;;;;;;5050545;28;20040;-76